Time,TemperatureF,DewpointF,PressureIn,WindDirection,WindDirectionDegrees,WindSpeedMPH,WindSpeedGustMPH,Humidity,HourlyPrecipIn,Conditions,Clouds,dailyrainin,SoftwareType,DateUTC
2013-11-21 00:23:00,39.9,33.0,30.28,SSW,194,0.0,1.0,76,0.00,,,0.00,weatherlink.com 1.10,2013-11-21 05:23:00,
2013-11-21 00:38:00,38.9,33.0,30.28,SSW,195,0.0,0.0,79,0.00,,,0.00,weatherlink.com 1.10,2013-11-21 05:38:00,
2013-11-21 00:53:00,38.2,33.0,30.29,SSW,194,0.0,0.0,81,0.00,,,0.00,weatherlink.com 1.10,2013-11-21 05:53:00,
2013-11-21 01:08:00,37.9,33.0,30.29,SSW,194,0.0,0.0,83,0.00,,,0.00,weatherlink.com 1.10,2013-11-21 06:08:00,
2013-11-21 01:23:00,37.5,33.0,30.29,SSW,194,0.0,0.0,84,0.00,,,0.00,weatherlink.com 1.10,2013-11-21 06:23:00,
2013-11-21 01:38:00,37.8,33.0,30.29,SSE,153,0.0,1.0,84,0.00,,,0.00,weatherlink.com 1.10,2013-11-21 06:38:00,
2013-11-21 01:53:00,38.7,34.0,30.28,SSW,195,0.0,1.0,83,0.00,,,0.00,weatherlink.com 1.10,2013-11-21 06:53:00,
2013-11-21 02:08:00,40.3,34.0,30.28,SW,233,0.0,2.0,78,0.00,,,0.00,weatherlink.com 1.10,2013-11-21 07:08:00,
2013-11-21 02:23:00,40.6,35.0,30.29,SW,233,0.0,1.0,80,0.00,,,0.00,weatherlink.com 1.10,2013-11-21 07:23:00,
2013-11-21 02:38:00,41.9,34.0,30.29,SW,215,1.0,2.0,74,0.00,,,0.00,weatherlink.com 1.10,2013-11-21 07:38:00,
2013-11-21 02:53:00,43.1,36.0,30.30,SSW,193,0.0,1.0,75,0.00,,,0.00,weatherlink.com 1.10,2013-11-21 07:53:00,
2013-11-21 03:08:00,41.4,36.0,30.30,SSE,147,0.0,1.0,80,0.00,,,0.00,weatherlink.com 1.10,2013-11-21 08:08:00,
2013-11-21 03:23:00,41.7,36.0,30.30,NW,310,0.0,2.0,80,0.00,,,0.00,weatherlink.com 1.10,2013-11-21 08:23:00,
2013-11-21 03:38:00,40.9,36.0,30.30,NNW,342,0.0,1.0,81,0.00,,,0.00,weatherlink.com 1.10,2013-11-21 08:38:00,
2013-11-21 03:53:00,41.8,36.0,30.30,West,262,0.0,3.0,80,0.00,,,0.00,weatherlink.com 1.10,2013-11-21 08:53:00,
2013-11-21 04:08:00,-999.0,-99.9,30.30,North,-999,-999.0,-999.0,-999,0.00,,,0.00,weatherlink.com 1.10,2013-11-21 09:08:00,
2013-11-21 04:24:00,-999.0,-99.9,30.30,North,-999,-999.0,-999.0,-999,0.00,,,0.00,weatherlink.com 1.10,2013-11-21 09:24:00,
2013-11-21 04:39:00,-999.0,-99.9,30.30,North,-999,-999.0,-999.0,-999,0.00,,,0.00,weatherlink.com 1.10,2013-11-21 09:39:00,
2013-11-21 04:54:00,-999.0,-99.9,30.30,North,-999,-999.0,-999.0,-999,0.00,,,0.00,weatherlink.com 1.10,2013-11-21 09:54:00,
2013-11-21 05:09:00,-999.0,-99.9,30.29,North,-999,-999.0,-999.0,-999,0.00,,,0.00,weatherlink.com 1.10,2013-11-21 10:09:00,
2013-11-21 05:24:00,-999.0,-99.9,30.29,North,-999,-999.0,-999.0,-999,0.00,,,0.00,weatherlink.com 1.10,2013-11-21 10:24:00,
2013-11-21 05:39:00,-999.0,-99.9,30.29,North,-999,-999.0,-999.0,-999,0.00,,,0.00,weatherlink.com 1.10,2013-11-21 10:39:00,
2013-11-21 05:54:00,-999.0,-99.9,30.30,North,-999,-999.0,-999.0,-999,0.00,,,0.00,weatherlink.com 1.10,2013-11-21 10:54:00,
2013-11-21 06:09:00,-999.0,-99.9,30.31,North,-999,-999.0,-999.0,-999,0.00,,,0.00,weatherlink.com 1.10,2013-11-21 11:09:00,
2013-11-21 06:24:00,-999.0,-99.9,30.31,North,-999,-999.0,-999.0,-999,0.00,,,0.00,weatherlink.com 1.10,2013-11-21 11:24:00,
2013-11-21 06:39:00,-999.0,-99.9,30.31,North,-999,-999.0,-999.0,-999,0.00,,,0.00,weatherlink.com 1.10,2013-11-21 11:39:00,
2013-11-21 06:54:00,-999.0,-99.9,30.32,North,-999,-999.0,-999.0,-999,0.00,,,0.00,weatherlink.com 1.10,2013-11-21 11:54:00,
2013-11-21 07:09:00,-999.0,-99.9,30.32,North,-999,-999.0,-999.0,-999,0.00,,,0.00,weatherlink.com 1.10,2013-11-21 12:09:00,
2013-11-21 07:24:00,-999.0,-99.9,30.32,North,-999,-999.0,-999.0,-999,0.00,,,0.00,weatherlink.com 1.10,2013-11-21 12:24:00,
2013-11-21 07:39:00,-999.0,-99.9,30.32,North,-999,-999.0,-999.0,-999,0.00,,,0.00,weatherlink.com 1.10,2013-11-21 12:39:00,
2013-11-21 07:55:00,-999.0,-99.9,30.33,North,-999,-999.0,-999.0,-999,0.00,,,0.00,weatherlink.com 1.10,2013-11-21 12:55:00,
2013-11-21 08:10:00,-999.0,-99.9,30.33,North,-999,-999.0,-999.0,-999,0.00,,,0.00,weatherlink.com 1.10,2013-11-21 13:10:00,
2013-11-21 08:25:00,42.4,37.0,30.34,SSE,163,0.0,0.0,82,0.00,,,0.00,weatherlink.com 1.10,2013-11-21 13:25:00,
2013-11-21 08:40:00,44.5,38.0,30.34,SSE,158,0.0,3.0,77,0.00,,,0.00,weatherlink.com 1.10,2013-11-21 13:40:00,
2013-11-21 08:55:00,46.7,39.0,30.34,SSE,152,0.0,1.0,75,0.00,,,0.00,weatherlink.com 1.10,2013-11-21 13:55:00,
2013-11-21 09:10:00,48.7,40.0,30.35,SSW,203,0.0,1.0,72,0.00,,,0.00,weatherlink.com 1.10,2013-11-21 14:10:00,
2013-11-21 09:25:00,49.6,41.0,30.35,SW,226,0.0,1.0,72,0.00,,,0.00,weatherlink.com 1.10,2013-11-21 14:25:00,
2013-11-21 09:40:00,50.9,43.0,30.34,SW,224,0.0,2.0,74,0.00,,,0.00,weatherlink.com 1.10,2013-11-21 14:40:00,
2013-11-21 09:55:00,51.7,44.0,30.34,SSE,160,0.0,1.0,74,0.00,,,0.00,weatherlink.com 1.10,2013-11-21 14:55:00,
2013-11-21 10:10:00,52.4,44.0,30.34,SSE,159,0.0,1.0,74,0.00,,,0.00,weatherlink.com 1.10,2013-11-21 15:10:00,
2013-11-21 10:25:00,53.6,45.0,30.35,East,89,0.0,1.0,73,0.00,,,0.00,weatherlink.com 1.10,2013-11-21 15:25:00,
2013-11-21 10:55:00,54.3,44.0,30.36,North,4,0.0,3.0,69,0.00,,,0.00,weatherlink.com 1.10,2013-11-21 15:55:00,
2013-11-21 11:10:00,55.1,45.0,30.34,East,79,0.0,2.0,70,0.00,,,0.00,weatherlink.com 1.10,2013-11-21 16:10:00,
2013-11-21 11:25:00,55.8,46.0,30.33,ENE,70,0.0,2.0,70,0.00,,,0.00,weatherlink.com 1.10,2013-11-21 16:25:00,
2013-11-21 11:40:00,57.4,47.0,30.32,West,281,0.0,2.0,68,0.00,,,0.00,weatherlink.com 1.10,2013-11-21 16:40:00,
2013-11-21 11:55:00,59.0,48.0,30.31,West,263,4.0,7.0,67,0.00,,,0.00,weatherlink.com 1.10,2013-11-21 16:55:00,
2013-11-21 12:10:00,59.3,48.0,30.30,SW,226,1.0,10.0,67,0.00,,,0.00,weatherlink.com 1.10,2013-11-21 17:10:00,
2013-11-21 12:26:00,59.5,48.0,30.30,WSW,252,1.0,8.0,67,0.00,,,0.00,weatherlink.com 1.10,2013-11-21 17:26:00,
2013-11-21 12:41:00,60.4,49.0,30.28,South,184,0.0,5.0,66,0.00,,,0.00,weatherlink.com 1.10,2013-11-21 17:41:00,
2013-11-21 12:56:00,62.6,50.0,30.28,WNW,285,1.0,4.0,64,0.00,,,0.00,weatherlink.com 1.10,2013-11-21 17:56:00,
2013-11-21 13:11:00,63.0,50.0,30.27,ENE,65,1.0,6.0,62,0.00,,,0.00,weatherlink.com 1.10,2013-11-21 18:11:00,
2013-11-21 13:26:00,62.9,50.0,30.26,East,79,5.0,5.0,63,0.00,,,0.00,weatherlink.com 1.10,2013-11-21 18:26:00,
2013-11-21 13:41:00,62.9,50.0,30.24,North,4,0.0,3.0,62,0.00,,,0.00,weatherlink.com 1.10,2013-11-21 18:41:00,
2013-11-21 13:56:00,64.0,51.0,30.23,ENE,58,3.0,4.0,62,0.00,,,0.00,weatherlink.com 1.10,2013-11-21 18:56:00,
2013-11-21 14:11:00,63.7,50.0,30.23,West,271,1.0,5.0,62,0.00,,,0.00,weatherlink.com 1.10,2013-11-21 19:11:00,
2013-11-21 14:26:00,63.4,50.0,30.22,SSW,195,2.0,5.0,63,0.00,,,0.00,weatherlink.com 1.10,2013-11-21 19:26:00,
2013-11-21 14:41:00,63.2,50.0,30.22,SW,219,0.0,5.0,63,0.00,,,0.00,weatherlink.com 1.10,2013-11-21 19:41:00,
2013-11-21 14:56:00,62.8,50.0,30.21,SSW,194,5.0,9.0,64,0.00,,,0.00,weatherlink.com 1.10,2013-11-21 19:56:00,
2013-11-21 15:11:00,62.6,50.0,30.21,SSW,205,1.0,5.0,64,0.00,,,0.00,weatherlink.com 1.10,2013-11-21 20:11:00,
2013-11-21 15:26:00,62.3,49.0,30.21,West,259,2.0,6.0,63,0.00,,,0.00,weatherlink.com 1.10,2013-11-21 20:26:00,
2013-11-21 15:41:00,62.4,50.0,30.23,SSW,205,2.0,4.0,64,0.00,,,0.00,weatherlink.com 1.10,2013-11-21 20:41:00,
2013-11-21 15:56:00,61.9,49.0,30.24,SW,218,2.0,6.0,64,0.00,,,0.00,weatherlink.com 1.10,2013-11-21 20:56:00,
2013-11-21 16:26:00,61.1,50.0,30.24,WSW,256,0.0,2.0,66,0.00,,,0.00,weatherlink.com 1.10,2013-11-21 21:26:00,
2013-11-21 16:41:00,60.7,50.0,30.25,WSW,253,0.0,3.0,67,0.00,,,0.00,weatherlink.com 1.10,2013-11-21 21:41:00,
2013-11-21 16:56:00,60.3,50.0,30.25,SW,229,0.0,1.0,68,0.00,,,0.00,weatherlink.com 1.10,2013-11-21 21:56:00,
2013-11-21 17:11:00,59.8,50.0,30.25,SW,229,0.0,1.0,70,0.00,,,0.00,weatherlink.com 1.10,2013-11-21 22:11:00,
2013-11-21 17:26:00,59.1,50.0,30.26,SW,229,0.0,0.0,72,0.00,,,0.00,weatherlink.com 1.10,2013-11-21 22:26:00,
2013-11-21 17:41:00,58.6,50.0,30.27,SW,229,0.0,0.0,73,0.00,,,0.00,weatherlink.com 1.10,2013-11-21 22:41:00,
2013-11-21 17:56:00,58.1,50.0,30.27,SW,229,0.0,0.0,75,0.00,,,0.00,weatherlink.com 1.10,2013-11-21 22:56:00,
2013-11-21 18:11:00,57.7,51.0,30.27,SSW,212,1.0,1.0,77,0.00,,,0.00,weatherlink.com 1.10,2013-11-21 23:11:00,
2013-11-21 18:26:00,57.2,51.0,30.27,SSW,212,0.0,1.0,80,0.00,,,0.00,weatherlink.com 1.10,2013-11-21 23:26:00,
2013-11-21 18:41:00,56.2,52.0,30.27,SSW,212,0.0,0.0,84,0.00,,,0.00,weatherlink.com 1.10,2013-11-21 23:41:00,
2013-11-21 18:56:00,55.5,52.0,30.25,SSE,166,0.0,2.0,87,0.02,,,0.02,weatherlink.com 1.10,2013-11-21 23:56:00,
2013-11-21 19:11:00,55.1,52.0,30.25,WSW,239,0.0,1.0,88,0.04,,,0.04,weatherlink.com 1.10,2013-11-22 00:11:00,
2013-11-21 19:26:00,54.4,52.0,30.27,SW,229,0.0,1.0,91,0.06,,,0.06,weatherlink.com 1.10,2013-11-22 00:26:00,
2013-11-21 19:41:00,54.1,52.0,30.27,SW,229,0.0,0.0,92,0.07,,,0.07,weatherlink.com 1.10,2013-11-22 00:41:00,
2013-11-21 20:11:00,53.7,52.0,30.24,SSE,152,0.0,2.0,94,0.03,,,0.07,weatherlink.com 1.10,2013-11-22 01:11:00,
2013-11-21 20:26:00,53.5,52.0,30.25,SSE,162,0.0,0.0,94,0.02,,,0.08,weatherlink.com 1.10,2013-11-22 01:26:00,
2013-11-21 20:41:00,53.4,52.0,30.25,SSE,162,0.0,0.0,94,0.01,,,0.08,weatherlink.com 1.10,2013-11-22 01:41:00,
2013-11-21 20:56:00,53.3,52.0,30.25,SSE,162,0.0,0.0,95,0.01,,,0.08,weatherlink.com 1.10,2013-11-22 01:56:00,
2013-11-21 21:11:00,53.0,52.0,30.25,SSE,162,0.0,0.0,95,0.01,,,0.08,weatherlink.com 1.10,2013-11-22 02:11:00,
2013-11-21 21:26:00,52.9,52.0,30.26,SW,215,0.0,0.0,95,0.00,,,0.08,weatherlink.com 1.10,2013-11-22 02:26:00,
2013-11-21 21:41:00,52.7,51.0,30.26,SW,216,0.0,0.0,95,0.00,,,0.08,weatherlink.com 1.10,2013-11-22 02:41:00,
2013-11-21 21:56:00,52.6,51.0,30.25,SW,215,0.0,0.0,95,0.00,,,0.08,weatherlink.com 1.10,2013-11-22 02:56:00,
2013-11-21 22:11:00,52.6,52.0,30.26,SW,215,0.0,0.0,96,0.00,,,0.08,weatherlink.com 1.10,2013-11-22 03:11:00,
2013-11-21 22:26:00,52.6,52.0,30.26,SW,215,0.0,0.0,96,0.00,,,0.08,weatherlink.com 1.10,2013-11-22 03:26:00,
2013-11-21 22:41:00,52.7,52.0,30.25,SW,215,0.0,0.0,96,0.00,,,0.08,weatherlink.com 1.10,2013-11-22 03:41:00,
2013-11-21 22:56:00,52.8,52.0,30.26,SW,215,0.0,0.0,96,0.00,,,0.08,weatherlink.com 1.10,2013-11-22 03:56:00,
2013-11-21 23:11:00,52.8,52.0,30.26,SW,216,0.0,1.0,96,0.00,,,0.08,weatherlink.com 1.10,2013-11-22 04:11:00,
2013-11-21 23:26:00,52.8,52.0,30.25,SW,215,0.0,0.0,96,0.00,,,0.08,weatherlink.com 1.10,2013-11-22 04:26:00,
2013-11-21 23:41:00,52.9,52.0,30.25,SW,215,0.0,0.0,96,0.00,,,0.08,weatherlink.com 1.10,2013-11-22 04:41:00,
2013-11-21 23:56:00,53.0,52.0,30.25,SW,215,0.0,0.0,96,0.00,,,0.08,weatherlink.com 1.10,2013-11-22 04:56:00,